Terminal Aerodrome Forecast
Issued by NWS Charleston, WV

Home | Current Version | Previous Version | Text Only | Print | Product List | Glossary On
Versions: 1 2 3 4 5 6 7 8 9 10 11 12 13 14 15 16 17 18 19 20 21 22 23 24 25 26 27 28 29 30
864
FTUS41 KRLX 211520 AAC
TAFEKN
TAF AMD
KEKN 211520Z 2115/2212 00000KT 1/4SM FG BKN001
     FM211600 00000KT 4SM BR SCT002 BKN250
     FM211630 19006KT P6SM BKN040
     FM220000 17003KT P6SM BKN070=

USA.gov is the U.S. government's official web portal to all federal, state and local government web resources and services.